Time;durP1;ratioP1;P1;durP2;ratioP2;P2;SDS_P1;SDS_P2;PMS_P1;PMS_P2;Temp;Humidity;BMP_temperature;BMP_pressure;BME280_temperature;BME280_humidity;BME280_pressure;Samples;Min_cycle;Max_cycle;Signal;HPM_P1;HPM_P2
2023/09/24 00:02:25;;;;;;;15.37;6.97;;;;;;;;;;5100602;28;20196;-71
2023/09/24 00:04:52;;;;;;;6.03;5.43;;;;;;;;;;5095517;28;20619;-71
2023/09/24 00:07:19;;;;;;;10.07;6.27;;;;;;;;;;5101201;28;20231;-71
2023/09/24 00:09:46;;;;;;;13.37;5.80;;;;;;;;;;5094721;28;20220;-70
2023/09/24 00:12:13;;;;;;;10.70;5.43;;;;;;;;;;5101674;28;20660;-70
2023/09/24 00:14:40;;;;;;;8.43;5.77;;;;;;;;;;5093855;28;20226;-71
2023/09/24 00:17:10;;;;;;;7.87;5.40;;;;;;;;;;5091031;28;20799;-71
2023/09/24 00:19:37;;;;;;;9.97;6.07;;;;;;;;;;5104773;28;20228;-71
2023/09/24 00:22:04;;;;;;;11.13;5.77;;;;;;;;;;5102331;28;20620;-71
2023/09/24 00:24:31;;;;;;;8.10;6.27;;;;;;;;;;5106890;28;20200;-71
2023/09/24 00:26:58;;;;;;;13.80;6.50;;;;;;;;;;5090786;28;20557;-71
2023/09/24 00:29:24;;;;;;;10.47;5.50;;;;;;;;;;5104863;28;20214;-70
2023/09/24 00:31:51;;;;;;;9.53;6.70;;;;;;;;;;5090934;28;20685;-71
2023/09/24 00:34:19;;;;;;;11.07;6.07;;;;;;;;;;5090959;28;20243;-71
2023/09/24 00:36:50;;;;;;;8.47;5.90;;;;;;;;;;5103290;28;20210;-70
2023/09/24 00:39:16;;;;;;;12.43;6.67;;;;;;;;;;5091401;28;20224;-71
2023/09/24 00:41:46;;;;;;;6.53;5.80;;;;;;;;;;5090797;28;20261;-70
2023/09/24 00:44:14;;;;;;;11.93;5.87;;;;;;;;;;5091165;28;20231;-71
2023/09/24 00:46:42;;;;;;;10.87;7.03;;;;;;;;;;5104555;28;20637;-71
2023/09/24 00:49:08;;;;;;;9.77;5.50;;;;;;;;;;5103541;28;20198;-71
2023/09/24 00:51:37;;;;;;;13.67;6.53;;;;;;;;;;5104355;28;20207;-71
2023/09/24 00:54:04;;;;;;;8.63;6.67;;;;;;;;;;5090764;28;20220;-71
2023/09/24 00:56:31;;;;;;;7.37;6.23;;;;;;;;;;5104865;28;20632;-71
2023/09/24 00:58:57;;;;;;;11.40;6.33;;;;;;;;;;5103213;28;20731;-71
2023/09/24 01:01:25;;;;;;;7.27;6.10;;;;;;;;;;5091371;28;20209;-71
2023/09/24 01:03:52;;;;;;;19.97;7.50;;;;;;;;;;5110738;28;20252;-70
2023/09/24 01:06:19;;;;;;;10.10;6.33;;;;;;;;;;5095782;28;20204;-71
2023/09/24 01:08:49;;;;;;;10.83;7.00;;;;;;;;;;5090591;28;20204;-70
2023/09/24 01:11:15;;;;;;;9.10;6.03;;;;;;;;;;5090240;28;20208;-70
2023/09/24 01:13:43;;;;;;;15.47;6.00;;;;;;;;;;5090408;28;20220;-71
2023/09/24 01:16:11;;;;;;;8.77;6.00;;;;;;;;;;5092957;28;20208;-70
2023/09/24 01:18:41;;;;;;;9.23;6.00;;;;;;;;;;5100852;28;20869;-71
2023/09/24 01:21:12;;;;;;;9.37;5.80;;;;;;;;;;5107225;28;20204;-71
2023/09/24 01:23:42;;;;;;;12.00;7.43;;;;;;;;;;5100635;28;20208;-70
2023/09/24 01:26:10;;;;;;;11.63;7.60;;;;;;;;;;5093816;28;20692;-71
2023/09/24 01:28:37;;;;;;;7.23;5.97;;;;;;;;;;5094871;28;20204;-71
2023/09/24 01:31:04;;;;;;;8.27;6.17;;;;;;;;;;5113471;28;20203;-70
2023/09/24 01:33:31;;;;;;;12.93;6.90;;;;;;;;;;5114437;28;20215;-71
2023/09/24 01:35:58;;;;;;;14.13;6.80;;;;;;;;;;5114245;28;20195;-71
2023/09/24 01:38:25;;;;;;;13.80;7.13;;;;;;;;;;5114655;28;20195;-70
2023/09/24 01:40:54;;;;;;;10.10;6.13;;;;;;;;;;5107760;28;20206;-70
2023/09/24 01:43:21;;;;;;;17.57;9.70;;;;;;;;;;5094193;28;20200;-71
2023/09/24 01:45:47;;;;;;;7.33;6.27;;;;;;;;;;5107348;28;20210;-71
2023/09/24 01:48:15;;;;;;;9.47;6.23;;;;;;;;;;5093553;28;20200;-71
2023/09/24 01:50:42;;;;;;;8.97;6.60;;;;;;;;;;5094323;28;20287;-71
2023/09/24 01:53:09;;;;;;;10.40;7.37;;;;;;;;;;5094595;28;20292;-71
2023/09/24 01:55:37;;;;;;;11.30;6.87;;;;;;;;;;5114140;28;20231;-71
2023/09/24 01:58:06;;;;;;;12.63;7.27;;;;;;;;;;5112372;28;20202;-70
2023/09/24 02:00:32;;;;;;;9.07;6.37;;;;;;;;;;5102550;28;20206;-70
2023/09/24 02:03:07;;;;;;;9.50;6.57;;;;;;;;;;5099843;28;20625;-71
2023/09/24 02:05:34;;;;;;;10.50;6.73;;;;;;;;;;5113847;28;20252;-71
2023/09/24 02:08:02;;;;;;;10.73;6.43;;;;;;;;;;5096928;28;20207;-71
2023/09/24 02:10:29;;;;;;;9.77;6.40;;;;;;;;;;5093584;28;20318;-70
2023/09/24 02:12:55;;;;;;;9.93;6.83;;;;;;;;;;5093294;28;20197;-71
2023/09/24 02:15:25;;;;;;;9.03;6.80;;;;;;;;;;5104290;28;20227;-70
2023/09/24 02:17:51;;;;;;;6.97;6.23;;;;;;;;;;5113025;28;20196;-71
2023/09/24 02:20:25;;;;;;;8.03;6.10;;;;;;;;;;5102496;28;20250;-71
2023/09/24 02:22:56;;;;;;;21.23;7.50;;;;;;;;;;5106738;28;20222;-70
2023/09/24 02:25:24;;;;;;;11.77;6.90;;;;;;;;;;5093648;28;20211;-70
2023/09/24 02:27:51;;;;;;;12.93;6.73;;;;;;;;;;5092896;28;20567;-70
2023/09/24 02:30:18;;;;;;;10.33;7.27;;;;;;;;;;5105567;28;20770;-70
2023/09/24 02:32:47;;;;;;;10.23;7.03;;;;;;;;;;5107032;28;20211;-70
2023/09/24 02:35:14;;;;;;;8.40;6.80;;;;;;;;;;5104733;28;20319;-71
2023/09/24 02:37:44;;;;;;;13.27;7.03;;;;;;;;;;5106520;28;20290;-70
2023/09/24 02:40:17;;;;;;;7.20;6.53;;;;;;;;;;5093134;28;20200;-70
2023/09/24 02:42:45;;;;;;;14.10;7.20;;;;;;;;;;5092993;28;20204;-71
2023/09/24 02:45:12;;;;;;;12.17;7.63;;;;;;;;;;5092863;28;20255;-71
2023/09/24 02:47:39;;;;;;;13.30;7.00;;;;;;;;;;5092841;28;20200;-70
2023/09/24 02:50:13;;;;;;;9.23;6.70;;;;;;;;;;5092722;28;20221;-71
2023/09/24 02:52:41;;;;;;;12.93;6.50;;;;;;;;;;5092537;28;20286;-70
2023/09/24 02:55:10;;;;;;;12.17;7.53;;;;;;;;;;5092339;28;20235;-71
2023/09/24 02:57:37;;;;;;;8.57;6.43;;;;;;;;;;5102630;28;20600;-71
2023/09/24 03:00:11;;;;;;;9.87;6.67;;;;;;;;;;5095767;28;20207;-71
2023/09/24 03:02:38;;;;;;;8.17;6.70;;;;;;;;;;5092782;28;20203;-70
2023/09/24 03:05:11;;;;;;;10.13;7.10;;;;;;;;;;5110642;28;20196;-71
2023/09/24 03:07:37;;;;;;;10.23;6.93;;;;;;;;;;5100417;28;20261;-70
2023/09/24 03:10:07;;;;;;;9.00;7.20;;;;;;;;;;5092265;28;20196;-71
2023/09/24 03:12:34;;;;;;;11.10;7.43;;;;;;;;;;5092438;28;20208;-71
2023/09/24 03:15:01;;;;;;;12.67;7.23;;;;;;;;;;5092381;28;20220;-70
2023/09/24 03:17:28;;;;;;;9.43;6.70;;;;;;;;;;5092167;28;20204;-71
2023/09/24 03:19:55;;;;;;;11.97;6.57;;;;;;;;;;5092005;28;20669;-71
2023/09/24 03:22:24;;;;;;;9.07;6.83;;;;;;;;;;5091832;28;20671;-71
2023/09/24 03:24:51;;;;;;;13.73;7.77;;;;;;;;;;5091655;28;20211;-70
2023/09/24 03:27:18;;;;;;;9.23;6.87;;;;;;;;;;5092943;28;20206;-71
2023/09/24 03:29:45;;;;;;;11.53;8.83;;;;;;;;;;5112699;28;20204;-70
2023/09/24 03:32:12;;;;;;;11.30;8.10;;;;;;;;;;5110553;28;20215;-71
2023/09/24 03:34:39;;;;;;;8.03;7.10;;;;;;;;;;5100302;28;20280;-71
2023/09/24 03:37:09;;;;;;;8.83;7.00;;;;;;;;;;5097015;28;20283;-71
2023/09/24 03:39:38;;;;;;;15.53;7.13;;;;;;;;;;5100784;28;20675;-71
2023/09/24 03:42:05;;;;;;;11.97;6.77;;;;;;;;;;5109382;28;20286;-71
2023/09/24 03:44:31;;;;;;;12.97;7.47;;;;;;;;;;5091858;28;20273;-70
2023/09/24 03:46:58;;;;;;;7.87;6.90;;;;;;;;;;5106841;28;20627;-70
2023/09/24 03:49:25;;;;;;;11.27;7.40;;;;;;;;;;5112351;28;20287;-70
2023/09/24 03:51:52;;;;;;;11.67;6.73;;;;;;;;;;5098524;28;20195;-70
2023/09/24 03:54:19;;;;;;;8.47;6.80;;;;;;;;;;5094088;28;20201;-70
2023/09/24 03:56:47;;;;;;;10.30;6.90;;;;;;;;;;5091260;28;20201;-71
2023/09/24 03:59:13;;;;;;;10.87;7.60;;;;;;;;;;5102752;28;20256;-71
2023/09/24 04:01:40;;;;;;;11.37;6.67;;;;;;;;;;5111299;28;20769;-70
2023/09/24 04:04:11;;;;;;;9.90;6.77;;;;;;;;;;5099987;28;20708;-71
2023/09/24 04:06:39;;;;;;;9.53;6.83;;;;;;;;;;5090841;28;20197;-70
2023/09/24 04:09:07;;;;;;;8.80;6.50;;;;;;;;;;5091735;28;20279;-71
2023/09/24 04:11:33;;;;;;;10.17;6.53;;;;;;;;;;5090765;28;20207;-70
2023/09/24 04:14:02;;;;;;;11.57;7.13;;;;;;;;;;5091172;28;20677;-70
2023/09/24 04:16:30;;;;;;;10.77;6.57;;;;;;;;;;5092959;28;20228;-71
2023/09/24 04:18:57;;;;;;;8.87;6.00;;;;;;;;;;5095092;28;20215;-70
2023/09/24 04:21:24;;;;;;;9.80;6.80;;;;;;;;;;5103036;28;20207;-71
2023/09/24 04:23:51;;;;;;;9.50;6.60;;;;;;;;;;5109140;28;20200;-70
2023/09/24 04:26:21;;;;;;;11.90;6.60;;;;;;;;;;5096260;28;20238;-71
2023/09/24 04:28:49;;;;;;;13.17;7.20;;;;;;;;;;5090923;28;20204;-70
2023/09/24 04:31:17;;;;;;;11.20;6.43;;;;;;;;;;5104196;28;20204;-71
2023/09/24 04:33:45;;;;;;;11.50;7.57;;;;;;;;;;5099960;28;20188;-70
2023/09/24 04:36:12;;;;;;;12.67;7.77;;;;;;;;;;5094597;28;20228;-71
2023/09/24 04:38:41;;;;;;;10.37;7.30;;;;;;;;;;5100979;28;20254;-71
2023/09/24 04:41:08;;;;;;;12.70;8.27;;;;;;;;;;5093790;28;20640;-71
2023/09/24 04:43:35;;;;;;;8.17;6.53;;;;;;;;;;5100516;28;20203;-71
2023/09/24 04:46:05;;;;;;;13.30;7.83;;;;;;;;;;5090827;28;20566;-70
2023/09/24 04:48:34;;;;;;;10.77;7.87;;;;;;;;;;5091086;28;20287;-70
2023/09/24 04:51:01;;;;;;;10.30;5.97;;;;;;;;;;5095169;28;20734;-70
2023/09/24 04:53:28;;;;;;;7.73;6.10;;;;;;;;;;5111412;28;20208;-70
2023/09/24 04:55:55;;;;;;;11.17;7.17;;;;;;;;;;5091927;28;20261;-71
2023/09/24 04:58:22;;;;;;;10.53;5.53;;;;;;;;;;5091035;28;20674;-71
2023/09/24 05:00:49;;;;;;;11.30;7.07;;;;;;;;;;5095095;28;20257;-70
2023/09/24 05:03:16;;;;;;;9.33;6.60;;;;;;;;;;5106791;28;20682;-70
2023/09/24 05:05:44;;;;;;;12.47;7.23;;;;;;;;;;5109354;28;20591;-71
2023/09/24 05:08:11;;;;;;;9.83;6.70;;;;;;;;;;5107834;28;20214;-70
2023/09/24 05:10:41;;;;;;;10.30;6.77;;;;;;;;;;5108156;28;20257;-71
2023/09/24 05:13:08;;;;;;;7.70;6.17;;;;;;;;;;5094242;28;20204;-71
2023/09/24 05:15:36;;;;;;;8.03;6.70;;;;;;;;;;5101789;28;20234;-71
2023/09/24 05:18:04;;;;;;;9.73;6.60;;;;;;;;;;5099953;28;20204;-71
2023/09/24 05:20:31;;;;;;;10.50;5.67;;;;;;;;;;5095074;28;20600;-70
2023/09/24 05:23:00;;;;;;;8.43;6.60;;;;;;;;;;5093923;28;20291;-70
2023/09/24 05:25:27;;;;;;;12.47;7.07;;;;;;;;;;5107219;28;20203;-71
2023/09/24 05:27:53;;;;;;;13.23;7.20;;;;;;;;;;5100893;28;20203;-70
2023/09/24 05:30:20;;;;;;;11.50;7.07;;;;;;;;;;5101507;28;20739;-70
2023/09/24 05:32:47;;;;;;;11.13;6.87;;;;;;;;;;5100113;28;20204;-71
2023/09/24 05:35:14;;;;;;;7.97;6.70;;;;;;;;;;5114422;28;20223;-71
2023/09/24 05:37:42;;;;;;;13.13;7.03;;;;;;;;;;5100350;28;20662;-70
2023/09/24 05:40:11;;;;;;;11.03;6.87;;;;;;;;;;5114641;28;20207;-71
2023/09/24 05:42:38;;;;;;;10.03;7.03;;;;;;;;;;5100756;28;20200;-71
2023/09/24 05:45:05;;;;;;;10.40;6.97;;;;;;;;;;5100407;28;20215;-75
2023/09/24 05:47:32;;;;;;;8.30;6.40;;;;;;;;;;5106824;28;20265;-74
2023/09/24 05:49:59;;;;;;;10.00;6.43;;;;;;;;;;5094000;28;20197;-74
2023/09/24 05:52:26;;;;;;;6.87;6.07;;;;;;;;;;5093799;28;20287;-73
2023/09/24 05:54:52;;;;;;;10.80;6.57;;;;;;;;;;5107795;28;20662;-74
2023/09/24 05:57:22;;;;;;;16.77;6.60;;;;;;;;;;5105613;28;20694;-74
2023/09/24 05:59:48;;;;;;;7.80;6.30;;;;;;;;;;5105455;28;20199;-74
2023/09/24 06:02:15;;;;;;;10.00;6.07;;;;;;;;;;5092876;28;20663;-74
2023/09/24 06:04:42;;;;;;;12.77;7.93;;;;;;;;;;5094497;28;20223;-73
2023/09/24 06:07:09;;;;;;;7.37;6.07;;;;;;;;;;5093330;28;20694;-74
2023/09/24 06:09:36;;;;;;;12.60;6.13;;;;;;;;;;5101673;28;20204;-74
2023/09/24 06:12:05;;;;;;;7.33;5.90;;;;;;;;;;5099320;28;20195;-73
2023/09/24 06:14:33;;;;;;;8.03;5.73;;;;;;;;;;5104548;28;20195;-74
2023/09/24 06:17:00;;;;;;;14.10;6.30;;;;;;;;;;5113251;28;20654;-74
2023/09/24 06:19:27;;;;;;;13.10;7.00;;;;;;;;;;5106567;28;20656;-74
2023/09/24 06:21:54;;;;;;;8.33;5.67;;;;;;;;;;5100883;28;20203;-73
2023/09/24 06:24:21;;;;;;;6.80;6.10;;;;;;;;;;5112763;28;20642;-74
2023/09/24 06:26:48;;;;;;;8.83;7.17;;;;;;;;;;5105649;28;20231;-74
2023/09/24 06:29:14;;;;;;;11.37;7.53;;;;;;;;;;5112851;28;20195;-74
2023/09/24 06:31:43;;;;;;;9.90;6.07;;;;;;;;;;5112421;28;20221;-74
2023/09/24 06:34:10;;;;;;;15.33;6.90;;;;;;;;;;5112092;28;20204;-74
2023/09/24 06:36:37;;;;;;;10.50;6.37;;;;;;;;;;5112758;28;20254;-74
2023/09/24 06:39:08;;;;;;;10.50;6.77;;;;;;;;;;5113405;28;20200;-74
2023/09/24 06:41:35;;;;;;;11.23;6.13;;;;;;;;;;5113120;28;20199;-74
2023/09/24 06:44:01;;;;;;;7.20;5.03;;;;;;;;;;5106468;28;20201;-74
2023/09/24 06:46:28;;;;;;;6.50;5.20;;;;;;;;;;5092616;28;20205;-74
2023/09/24 06:48:56;;;;;;;10.03;5.67;;;;;;;;;;5093213;28;20574;-74
2023/09/24 06:51:23;;;;;;;7.60;5.63;;;;;;;;;;5106643;28;20681;-74
2023/09/24 06:53:50;;;;;;;10.37;5.57;;;;;;;;;;5112793;28;20199;-74
2023/09/24 06:56:17;;;;;;;9.93;5.97;;;;;;;;;;5112577;28;20231;-74
2023/09/24 06:58:44;;;;;;;8.00;5.10;;;;;;;;;;5113132;28;20272;-74
2023/09/24 07:01:11;;;;;;;9.03;5.83;;;;;;;;;;5107999;28;20236;-74
2023/09/24 07:03:38;;;;;;;8.17;5.13;;;;;;;;;;5100457;28;20195;-75
2023/09/24 07:06:06;;;;;;;9.60;5.07;;;;;;;;;;5101756;28;20311;-74
2023/09/24 07:08:34;;;;;;;7.97;5.23;;;;;;;;;;5101159;28;20287;-74
2023/09/24 07:11:24;;;;;;;12.30;5.20;;;;;;;;;;5100200;28;20237;-74
2023/09/24 07:13:51;;;;;;;9.43;5.13;;;;;;;;;;5104526;28;20199;-74
2023/09/24 07:16:20;;;;;;;9.37;5.20;;;;;;;;;;5095285;28;20914;-74
2023/09/24 07:18:48;;;;;;;11.87;5.17;;;;;;;;;;5098060;28;20220;-74
2023/09/24 07:21:16;;;;;;;10.83;5.77;;;;;;;;;;5095514;28;20197;-75
2023/09/24 07:23:43;;;;;;;14.77;6.07;;;;;;;;;;5100670;28;20200;-74
2023/09/24 07:26:09;;;;;;;8.07;4.80;;;;;;;;;;5098694;28;20204;-74
2023/09/24 07:28:36;;;;;;;7.40;5.23;;;;;;;;;;5094037;28;20204;-74
2023/09/24 07:31:03;;;;;;;5.97;4.47;;;;;;;;;;5096238;28;20200;-74
2023/09/24 07:33:30;;;;;;;6.60;3.80;;;;;;;;;;5092818;28;20200;-74
2023/09/24 07:35:56;;;;;;;8.80;4.80;;;;;;;;;;5112317;28;20289;-74
2023/09/24 07:38:24;;;;;;;6.33;3.80;;;;;;;;;;5098556;28;20435;-74
2023/09/24 07:40:51;;;;;;;5.20;3.93;;;;;;;;;;5112109;28;20678;-74
2023/09/24 07:43:18;;;;;;;9.75;5.38;;;;;;;;;;5105260;28;20200;-74
2023/09/24 07:45:46;;;;;;;5.72;3.75;;;;;;;;;;5104841;28;20208;-74
2023/09/24 07:48:14;;;;;;;7.05;4.25;;;;;;;;;;5093374;28;20203;-74
2023/09/24 07:50:41;;;;;;;6.60;4.35;;;;;;;;;;5091528;28;20208;-74
2023/09/24 07:53:09;;;;;;;8.00;3.73;;;;;;;;;;5091307;28;20769;-74
2023/09/24 07:55:38;;;;;;;12.02;4.43;;;;;;;;;;5091677;28;20239;-74
2023/09/24 07:58:05;;;;;;;10.18;3.83;;;;;;;;;;5101475;28;20207;-74
2023/09/24 08:00:31;;;;;;;9.48;3.88;;;;;;;;;;5095064;28;20208;-74
2023/09/24 08:02:58;;;;;;;11.65;4.15;;;;;;;;;;5100591;28;20607;-74
2023/09/24 08:05:25;;;;;;;13.27;4.07;;;;;;;;;;5093087;28;20242;-74
2023/09/24 08:07:52;;;;;;;7.82;4.40;;;;;;;;;;5102186;28;20256;-74
2023/09/24 08:10:18;;;;;;;4.50;4.10;;;;;;;;;;5093458;28;20224;-74
2023/09/24 08:12:46;;;;;;;9.35;4.78;;;;;;;;;;5101371;28;20215;-74
2023/09/24 08:15:13;;;;;;;7.32;4.07;;;;;;;;;;5096481;28;20195;-75
2023/09/24 08:17:40;;;;;;;10.55;4.20;;;;;;;;;;5109761;28;20227;-75
2023/09/24 08:20:08;;;;;;;7.82;4.28;;;;;;;;;;5098591;28;20242;-75
2023/09/24 08:22:35;;;;;;;5.80;3.72;;;;;;;;;;5096554;28;20211;-75
2023/09/24 08:25:02;;;;;;;8.85;5.18;;;;;;;;;;5091000;28;20200;-74
2023/09/24 08:27:29;;;;;;;9.23;4.60;;;;;;;;;;5090622;28;20196;-74
2023/09/24 08:29:57;;;;;;;12.23;4.25;;;;;;;;;;5090507;28;20291;-75
2023/09/24 08:32:24;;;;;;;9.30;4.40;;;;;;;;;;5090577;28;20204;-75
2023/09/24 08:34:51;;;;;;;10.70;5.03;;;;;;;;;;5103845;28;20279;-75
2023/09/24 08:37:18;;;;;;;8.90;5.45;;;;;;;;;;5101924;28;20782;-74
2023/09/24 08:39:45;;;;;;;9.02;4.95;;;;;;;;;;5092386;28;20219;-74
2023/09/24 08:42:15;;;;;;;14.98;5.05;;;;;;;;;;5102353;28;20563;-74
2023/09/24 08:44:42;;;;;;;10.18;4.28;;;;;;;;;;5096377;28;20202;-73
2023/09/24 08:47:11;;;;;;;5.43;4.07;;;;;;;;;;5097769;28;20643;-74
2023/09/24 08:49:38;;;;;;;5.70;4.25;;;;;;;;;;5104260;28;20206;-73
2023/09/24 08:52:05;;;;;;;18.38;5.30;;;;;;;;;;5096624;28;20187;-73
2023/09/24 08:54:32;;;;;;;8.00;4.63;;;;;;;;;;5110698;28;20256;-74
2023/09/24 08:56:59;;;;;;;11.30;4.38;;;;;;;;;;5091049;28;20231;-74
2023/09/24 08:59:26;;;;;;;14.10;4.90;;;;;;;;;;5104151;28;20215;-74
2023/09/24 09:01:54;;;;;;;12.35;4.70;;;;;;;;;;5090921;28;20207;-74
2023/09/24 09:04:22;;;;;;;9.18;4.38;;;;;;;;;;5090528;28;20291;-75
2023/09/24 09:06:49;;;;;;;14.07;4.90;;;;;;;;;;5090887;28;20197;-75
2023/09/24 09:09:24;;;;;;;7.68;4.05;;;;;;;;;;5091128;28;20249;-75
2023/09/24 09:11:50;;;;;;;8.70;4.13;;;;;;;;;;5102260;28;20277;-75
2023/09/24 09:14:33;;;;;;;25.80;6.00;;;;;;;;;;5090908;28;20200;-75
2023/09/24 09:17:00;;;;;;;10.48;5.10;;;;;;;;;;5090309;28;20804;-74
2023/09/24 09:19:30;;;;;;;8.13;4.13;;;;;;;;;;5103339;28;20231;-74
2023/09/24 09:21:56;;;;;;;8.02;3.65;;;;;;;;;;5089464;28;20203;-74
2023/09/24 09:24:24;;;;;;;12.73;5.00;;;;;;;;;;5092810;28;20260;-74
2023/09/24 09:26:54;;;;;;;7.43;4.10;;;;;;;;;;5100218;28;20200;-74
2023/09/24 09:29:22;;;;;;;32.20;6.85;;;;;;;;;;5089887;28;20200;-74
2023/09/24 09:31:49;;;;;;;15.80;4.80;;;;;;;;;;5089855;28;20713;-75
2023/09/24 09:34:16;;;;;;;8.80;4.88;;;;;;;;;;5088927;28;20283;-74
2023/09/24 09:36:44;;;;;;;15.40;4.30;;;;;;;;;;5101874;28;20224;-74
2023/09/24 09:39:11;;;;;;;11.55;4.35;;;;;;;;;;5090226;28;20228;-73
2023/09/24 09:41:41;;;;;;;30.83;7.20;;;;;;;;;;5089775;28;20231;-73
2023/09/24 09:44:08;;;;;;;17.58;4.70;;;;;;;;;;5090414;28;20720;-73
2023/09/24 09:46:39;;;;;;;7.95;4.10;;;;;;;;;;5094225;28;20208;-74
2023/09/24 09:49:08;;;;;;;5.57;3.90;;;;;;;;;;5094021;28;20207;-74
2023/09/24 09:51:39;;;;;;;14.02;4.40;;;;;;;;;;5093519;28;20205;-74
2023/09/24 09:54:07;;;;;;;17.58;4.55;;;;;;;;;;5100982;28;20191;-74
2023/09/24 09:56:36;;;;;;;91.97;13.70;;;;;;;;;;5104561;28;20224;-74
2023/09/24 09:59:02;;;;;;;18.38;4.60;;;;;;;;;;5098016;28;20204;-73
2023/09/24 10:01:29;;;;;;;9.85;3.90;;;;;;;;;;5100068;28;20196;-75
2023/09/24 10:03:56;;;;;;;8.70;4.55;;;;;;;;;;5093991;28;20204;-76
2023/09/24 10:06:24;;;;;;;9.25;4.00;;;;;;;;;;5093078;28;20666;-75
2023/09/24 10:08:50;;;;;;;12.45;4.50;;;;;;;;;;5106925;28;20662;-74
2023/09/24 10:11:53;;;;;;;12.40;4.90;;;;;;;;;;5093744;28;20262;-73
2023/09/24 10:14:32;;;;;;;11.23;4.65;;;;;;;;;;5110433;28;20226;-73
2023/09/24 10:17:20;;;;;;;9.20;4.22;;;;;;;;;;5113293;28;20223;-74
2023/09/24 10:19:48;;;;;;;9.13;4.55;;;;;;;;;;5106152;28;20220;-74
2023/09/24 10:22:27;;;;;;;7.25;4.53;;;;;;;;;;5108114;28;20215;-74
2023/09/24 10:24:53;;;;;;;8.27;3.60;;;;;;;;;;5107865;28;20206;-73
2023/09/24 10:27:30;;;;;;;10.75;4.15;;;;;;;;;;5113716;28;20211;-74
2023/09/24 10:30:00;;;;;;;15.68;4.75;;;;;;;;;;5110850;28;20199;-74
2023/09/24 10:32:27;;;;;;;16.40;5.30;;;;;;;;;;5096253;28;20204;-74
2023/09/24 10:35:12;;;;;;;13.10;4.88;;;;;;;;;;5100577;28;20210;-74
2023/09/24 10:38:02;;;;;;;9.45;4.15;;;;;;;;;;5113214;28;20222;-74
2023/09/24 10:40:29;;;;;;;9.20;3.40;;;;;;;;;;5099767;28;20196;-74
2023/09/24 10:43:18;;;;;;;9.05;4.45;;;;;;;;;;5093183;28;20269;-74
2023/09/24 10:45:44;;;;;;;5.68;3.65;;;;;;;;;;5109569;28;20259;-75
2023/09/24 10:48:11;;;;;;;7.40;3.88;;;;;;;;;;5103132;28;20590;-74
2023/09/24 10:50:43;;;;;;;8.25;4.50;;;;;;;;;;5096511;28;20196;-75
2023/09/24 10:53:10;;;;;;;6.35;3.92;;;;;;;;;;5112916;28;20200;-75
2023/09/24 10:55:39;;;;;;;10.18;3.92;;;;;;;;;;5108056;28;20207;-74
2023/09/24 10:58:11;;;;;;;9.00;4.35;;;;;;;;;;5091554;28;20617;-74
2023/09/24 11:00:41;;;;;;;9.68;4.57;;;;;;;;;;5092726;28;20228;-74
2023/09/24 11:03:09;;;;;;;9.32;4.45;;;;;;;;;;5092318;28;20235;-74
2023/09/24 11:05:42;;;;;;;10.52;3.88;;;;;;;;;;5099674;28;20203;-74
2023/09/24 11:08:09;;;;;;;7.95;3.67;;;;;;;;;;5111957;28;20259;-75
2023/09/24 11:10:36;;;;;;;5.22;4.20;;;;;;;;;;5095900;28;20207;-74
2023/09/24 11:13:04;;;;;;;9.43;4.72;;;;;;;;;;5106676;28;20259;-74
2023/09/24 11:15:32;;;;;;;10.00;4.47;;;;;;;;;;5092010;28;20219;-74
2023/09/24 11:18:01;;;;;;;7.85;3.75;;;;;;;;;;5103710;28;20222;-74
2023/09/24 11:20:30;;;;;;;12.48;4.22;;;;;;;;;;5104265;28;20206;-74
2023/09/24 11:23:01;;;;;;;13.48;4.35;;;;;;;;;;5109478;28;20261;-74
2023/09/24 11:25:29;;;;;;;12.85;4.95;;;;;;;;;;5102909;28;20210;-74
2023/09/24 11:27:57;;;;;;;9.13;3.67;;;;;;;;;;5096620;28;20200;-74
2023/09/24 11:30:26;;;;;;;9.30;4.15;;;;;;;;;;5107093;28;20199;-74
2023/09/24 11:32:54;;;;;;;4.63;3.35;;;;;;;;;;5111251;28;20207;-74
2023/09/24 11:35:25;;;;;;;9.50;4.10;;;;;;;;;;5097795;28;20204;-75
2023/09/24 11:37:53;;;;;;;8.25;3.78;;;;;;;;;;5093726;28;20324;-74
2023/09/24 11:40:24;;;;;;;21.38;4.38;;;;;;;;;;5107368;28;20195;-75
2023/09/24 11:42:53;;;;;;;9.23;3.90;;;;;;;;;;5094956;28;20192;-74
2023/09/24 11:45:46;;;;;;;9.93;4.50;;;;;;;;;;5091978;28;20752;-75
2023/09/24 11:48:14;;;;;;;8.00;3.88;;;;;;;;;;5092642;28;20193;-75
2023/09/24 11:50:44;;;;;;;10.23;4.90;;;;;;;;;;5093654;28;20204;-74
2023/09/24 11:53:11;;;;;;;10.88;4.57;;;;;;;;;;5103481;28;20207;-74
2023/09/24 11:55:38;;;;;;;9.38;4.68;;;;;;;;;;5110733;28;20226;-75
2023/09/24 11:58:06;;;;;;;8.23;4.63;;;;;;;;;;5107194;28;20224;-74
2023/09/24 12:00:33;;;;;;;7.13;4.03;;;;;;;;;;5101782;28;20642;-74
2023/09/24 12:03:01;;;;;;;12.43;4.22;;;;;;;;;;5101665;28;20202;-74
2023/09/24 12:05:28;;;;;;;9.27;4.60;;;;;;;;;;5111641;28;20241;-74
2023/09/24 12:07:56;;;;;;;12.75;3.35;;;;;;;;;;5098186;28;20200;-74
2023/09/24 12:10:23;;;;;;;13.23;4.63;;;;;;;;;;5108344;28;20568;-74
2023/09/24 12:12:51;;;;;;;6.50;3.50;;;;;;;;;;5096700;28;20678;-75
2023/09/24 12:15:19;;;;;;;8.43;4.57;;;;;;;;;;5111354;28;20199;-74
2023/09/24 12:17:46;;;;;;;9.68;3.95;;;;;;;;;;5111485;28;20246;-74
2023/09/24 12:20:14;;;;;;;14.38;4.53;;;;;;;;;;5103300;28;20747;-75
2023/09/24 12:22:42;;;;;;;10.88;4.72;;;;;;;;;;5097569;28;20207;-74
2023/09/24 12:25:11;;;;;;;13.90;4.30;;;;;;;;;;5111301;28;20204;-74
2023/09/24 12:27:39;;;;;;;9.52;3.85;;;;;;;;;;5097148;28;20200;-74
2023/09/24 12:30:11;;;;;;;7.55;3.88;;;;;;;;;;5102642;28;20203;-75
2023/09/24 12:32:39;;;;;;;10.70;4.20;;;;;;;;;;5110954;28;20742;-74
2023/09/24 12:35:07;;;;;;;13.90;4.47;;;;;;;;;;5107686;28;20203;-75
2023/09/24 12:37:34;;;;;;;8.15;3.92;;;;;;;;;;5107764;28;20223;-75
2023/09/24 12:40:04;;;;;;;8.48;3.78;;;;;;;;;;5099731;28;20200;-74
2023/09/24 12:42:32;;;;;;;15.48;5.05;;;;;;;;;;5093010;28;20230;-74
2023/09/24 12:44:59;;;;;;;16.77;5.68;;;;;;;;;;5100923;28;20597;-74
2023/09/24 12:47:28;;;;;;;14.60;3.97;;;;;;;;;;5103715;28;20230;-75
2023/09/24 12:49:56;;;;;;;7.57;3.92;;;;;;;;;;5111103;28;20200;-75
2023/09/24 12:52:24;;;;;;;7.05;3.90;;;;;;;;;;5111203;28;20239;-75
2023/09/24 12:54:51;;;;;;;14.68;3.80;;;;;;;;;;5105285;28;20204;-75
2023/09/24 12:57:18;;;;;;;8.93;4.10;;;;;;;;;;5090157;28;20712;-75
2023/09/24 12:59:46;;;;;;;11.05;4.75;;;;;;;;;;5109821;28;20684;-75
2023/09/24 13:02:14;;;;;;;8.32;4.38;;;;;;;;;;5110140;28;20207;-75
2023/09/24 13:04:40;;;;;;;8.43;4.15;;;;;;;;;;5101661;28;20250;-75
2023/09/24 13:07:07;;;;;;;16.50;5.07;;;;;;;;;;5101758;28;20200;-75
2023/09/24 13:09:34;;;;;;;10.82;4.32;;;;;;;;;;5097701;28;20208;-74
2023/09/24 13:12:01;;;;;;;7.53;4.10;;;;;;;;;;5100505;28;20578;-75
2023/09/24 13:14:28;;;;;;;5.85;3.95;;;;;;;;;;5104487;28;20201;-75
2023/09/24 13:16:56;;;;;;;12.13;4.43;;;;;;;;;;5107505;28;20203;-74
2023/09/24 13:19:23;;;;;;;8.20;4.57;;;;;;;;;;5102418;28;20288;-74
2023/09/24 13:21:50;;;;;;;11.98;4.38;;;;;;;;;;5108728;28;20698;-74
2023/09/24 13:24:17;;;;;;;11.30;4.57;;;;;;;;;;5099277;28;20196;-74
2023/09/24 13:26:44;;;;;;;7.20;3.58;;;;;;;;;;5109531;28;20242;-74
2023/09/24 13:29:10;;;;;;;9.98;4.55;;;;;;;;;;5109618;28;20204;-74
2023/09/24 13:31:37;;;;;;;15.40;4.18;;;;;;;;;;5104897;28;20204;-74
2023/09/24 13:34:07;;;;;;;10.68;4.25;;;;;;;;;;5114247;28;20260;-74
2023/09/24 13:36:35;;;;;;;7.93;3.95;;;;;;;;;;5113995;28;20691;-75
2023/09/24 13:39:02;;;;;;;15.02;4.75;;;;;;;;;;5112958;28;20318;-75
2023/09/24 13:41:29;;;;;;;6.88;3.80;;;;;;;;;;5109236;28;20196;-75
2023/09/24 13:43:56;;;;;;;10.93;4.05;;;;;;;;;;5106483;28;20200;-75
2023/09/24 13:46:23;;;;;;;9.55;4.43;;;;;;;;;;5106624;28;20208;-75
2023/09/24 13:48:50;;;;;;;11.20;5.00;;;;;;;;;;5108394;28;20195;-75
2023/09/24 13:51:18;;;;;;;7.75;3.42;;;;;;;;;;5100616;28;20200;-75
2023/09/24 13:53:45;;;;;;;8.27;4.10;;;;;;;;;;5094207;28;20269;-75
2023/09/24 13:56:12;;;;;;;12.48;4.30;;;;;;;;;;5095279;28;20204;-75
2023/09/24 13:58:39;;;;;;;11.68;4.00;;;;;;;;;;5112901;28;20766;-75
2023/09/24 14:01:06;;;;;;;9.73;4.85;;;;;;;;;;5096174;28;20207;-75
2023/09/24 14:03:33;;;;;;;11.20;4.05;;;;;;;;;;5093553;28;20203;-76
2023/09/24 14:06:00;;;;;;;9.63;4.15;;;;;;;;;;5092534;28;20200;-75
2023/09/24 14:14:05;;;;;;;9.05;3.83;;;;;;;;;;5109480;28;20207;-75
2023/09/24 14:16:32;;;;;;;9.82;4.05;;;;;;;;;;5092475;28;20201;-75
2023/09/24 14:18:59;;;;;;;7.45;3.88;;;;;;;;;;5110233;28;20237;-75
2023/09/24 14:21:26;;;;;;;11.70;4.95;;;;;;;;;;5093335;28;20205;-75
2023/09/24 14:23:54;;;;;;;7.07;3.58;;;;;;;;;;5106256;28;20578;-75
2023/09/24 14:26:20;;;;;;;14.63;4.78;;;;;;;;;;5106187;28;20719;-75
2023/09/24 14:28:47;;;;;;;12.52;4.85;;;;;;;;;;5093381;28;20207;-75
2023/09/24 14:31:14;;;;;;;8.07;3.67;;;;;;;;;;5113619;28;20217;-75
2023/09/24 14:33:41;;;;;;;6.65;3.63;;;;;;;;;;5103990;28;20199;-75
2023/09/24 14:36:09;;;;;;;11.10;4.38;;;;;;;;;;5101258;28;20200;-75
2023/09/24 14:38:36;;;;;;;12.18;6.45;;;;;;;;;;5095626;28;20732;-75
2023/09/24 14:41:04;;;;;;;10.95;3.80;;;;;;;;;;5099963;28;20196;-75
2023/09/24 14:43:30;;;;;;;9.52;3.92;;;;;;;;;;5091540;28;20196;-75
2023/09/24 14:45:58;;;;;;;7.00;3.72;;;;;;;;;;5091177;28;20778;-75
2023/09/24 14:48:25;;;;;;;13.57;4.38;;;;;;;;;;5109656;28;20245;-75